sensor_id;sensor_type;location;lat;lon;timestamp;P1;durP1;ratioP1;P2;durP2;ratioP2
2035;SDS011;23642;42.658;23.350;2023-02-12T00:00:04;108.35;;;101.03;;
2035;SDS011;23642;42.658;23.350;2023-02-12T00:04:48;110.70;;;103.13;;
2035;SDS011;23642;42.658;23.350;2023-02-12T00:16:41;108.78;;;101.78;;
2035;SDS011;23642;42.658;23.350;2023-02-12T00:20:09;109.45;;;102.35;;
2035;SDS011;23642;42.658;23.350;2023-02-12T00:22:55;108.80;;;101.80;;
2035;SDS011;23642;42.658;23.350;2023-02-12T00:25:49;109.28;;;102.28;;
2035;SDS011;23642;42.658;23.350;2023-02-12T00:28:30;109.70;;;102.60;;
2035;SDS011;23642;42.658;23.350;2023-02-12T00:31:04;109.70;;;102.43;;
2035;SDS011;23642;42.658;23.350;2023-02-12T00:33:51;110.30;;;102.75;;
2035;SDS011;23642;42.658;23.350;2023-02-12T00:36:37;109.72;;;102.80;;
2035;SDS011;23642;42.658;23.350;2023-02-12T00:39:17;109.20;;;102.05;;
2035;SDS011;23642;42.658;23.350;2023-02-12T00:42:13;105.50;;;98.57;;
2035;SDS011;23642;42.658;23.350;2023-02-12T00:45:17;108.63;;;101.72;;
2035;SDS011;23642;42.658;23.350;2023-02-12T00:47:50;110.22;;;103.00;;
2035;SDS011;23642;42.658;23.350;2023-02-12T00:50:40;108.45;;;101.32;;
2035;SDS011;23642;42.658;23.350;2023-02-12T00:53:39;109.57;;;102.47;;
2035;SDS011;23642;42.658;23.350;2023-02-12T00:56:38;109.72;;;102.68;;
2035;SDS011;23642;42.658;23.350;2023-02-12T00:59:35;107.72;;;100.80;;
2035;SDS011;23642;42.658;23.350;2023-02-12T01:02:19;106.90;;;99.70;;
2035;SDS011;23642;42.658;23.350;2023-02-12T01:05:29;108.75;;;101.55;;
2035;SDS011;23642;42.658;23.350;2023-02-12T01:11:35;106.90;;;100.18;;
2035;SDS011;23642;42.658;23.350;2023-02-12T01:14:40;108.28;;;101.25;;
2035;SDS011;23642;42.658;23.350;2023-02-12T01:17:26;110.35;;;102.95;;
2035;SDS011;23642;42.658;23.350;2023-02-12T01:20:11;108.43;;;101.47;;
2035;SDS011;23642;42.658;23.350;2023-02-12T01:23:03;108.70;;;101.70;;
2035;SDS011;23642;42.658;23.350;2023-02-12T01:25:48;108.50;;;101.47;;
2035;SDS011;23642;42.658;23.350;2023-02-12T01:41:47;104.85;;;98.03;;
2035;SDS011;23642;42.658;23.350;2023-02-12T01:44:29;109.60;;;102.40;;
2035;SDS011;23642;42.658;23.350;2023-02-12T01:50:53;107.55;;;100.05;;
2035;SDS011;23642;42.658;23.350;2023-02-12T02:27:20;106.60;;;99.65;;
2035;SDS011;23642;42.658;23.350;2023-02-12T02:30:32;106.10;;;99.20;;
2035;SDS011;23642;42.658;23.350;2023-02-12T02:33:28;107.10;;;99.88;;
2035;SDS011;23642;42.658;23.350;2023-02-12T02:36:30;109.63;;;102.43;;
2035;SDS011;23642;42.658;23.350;2023-02-12T02:39:24;109.88;;;102.60;;
2035;SDS011;23642;42.658;23.350;2023-02-12T02:42:34;109.03;;;101.80;;
2035;SDS011;23642;42.658;23.350;2023-02-12T02:45:25;109.50;;;101.80;;
2035;SDS011;23642;42.658;23.350;2023-02-12T02:48:23;109.60;;;102.30;;
2035;SDS011;23642;42.658;23.350;2023-02-12T02:51:26;111.88;;;104.38;;
2035;SDS011;23642;42.658;23.350;2023-02-12T02:54:14;112.63;;;105.20;;
2035;SDS011;23642;42.658;23.350;2023-02-12T02:56:55;110.40;;;102.80;;
2035;SDS011;23642;42.658;23.350;2023-02-12T02:59:39;111.95;;;104.20;;
2035;SDS011;23642;42.658;23.350;2023-02-12T03:02:36;111.50;;;104.18;;
2035;SDS011;23642;42.658;23.350;2023-02-12T03:05:12;112.05;;;104.45;;
2035;SDS011;23642;42.658;23.350;2023-02-12T03:07:46;113.00;;;105.30;;
2035;SDS011;23642;42.658;23.350;2023-02-12T03:10:27;115.05;;;107.03;;
2035;SDS011;23642;42.658;23.350;2023-02-12T03:12:59;114.20;;;106.07;;
2035;SDS011;23642;42.658;23.350;2023-02-12T03:15:31;112.95;;;105.32;;
2035;SDS011;23642;42.658;23.350;2023-02-12T03:18:16;110.13;;;102.72;;
2035;SDS011;23642;42.658;23.350;2023-02-12T03:20:58;112.40;;;104.90;;
2035;SDS011;23642;42.658;23.350;2023-02-12T03:23:34;112.32;;;104.72;;
2035;SDS011;23642;42.658;23.350;2023-02-12T03:26:09;112.50;;;104.72;;
2035;SDS011;23642;42.658;23.350;2023-02-12T03:28:42;115.20;;;107.30;;
2035;SDS011;23642;42.658;23.350;2023-02-12T03:31:16;117.18;;;108.75;;
2035;SDS011;23642;42.658;23.350;2023-02-12T03:34:01;112.82;;;105.13;;
2035;SDS011;23642;42.658;23.350;2023-02-12T03:36:36;117.25;;;109.03;;
2035;SDS011;23642;42.658;23.350;2023-02-12T03:39:15;116.05;;;108.10;;
2035;SDS011;23642;42.658;23.350;2023-02-12T03:41:58;116.50;;;108.55;;
2035;SDS011;23642;42.658;23.350;2023-02-12T03:44:38;118.63;;;110.32;;
2035;SDS011;23642;42.658;23.350;2023-02-12T03:47:14;117.63;;;109.15;;
2035;SDS011;23642;42.658;23.350;2023-02-12T03:49:48;117.28;;;109.30;;
2035;SDS011;23642;42.658;23.350;2023-02-12T03:52:19;115.40;;;107.30;;
2035;SDS011;23642;42.658;23.350;2023-02-12T03:54:46;119.70;;;110.97;;
2035;SDS011;23642;42.658;23.350;2023-02-12T03:57:20;117.55;;;109.13;;
2035;SDS011;23642;42.658;23.350;2023-02-12T03:59:57;119.03;;;110.55;;
2035;SDS011;23642;42.658;23.350;2023-02-12T04:02:28;116.57;;;108.22;;
2035;SDS011;23642;42.658;23.350;2023-02-12T04:05:04;116.63;;;108.47;;
2035;SDS011;23642;42.658;23.350;2023-02-12T04:07:33;118.70;;;110.07;;
2035;SDS011;23642;42.658;23.350;2023-02-12T04:10:02;121.25;;;112.65;;
2035;SDS011;23642;42.658;23.350;2023-02-12T04:12:31;119.05;;;110.55;;
2035;SDS011;23642;42.658;23.350;2023-02-12T04:15:18;121.00;;;112.20;;
2035;SDS011;23642;42.658;23.350;2023-02-12T04:17:58;120.22;;;111.63;;
2035;SDS011;23642;42.658;23.350;2023-02-12T04:20:46;120.80;;;112.15;;
2035;SDS011;23642;42.658;23.350;2023-02-12T04:23:23;119.43;;;111.13;;
2035;SDS011;23642;42.658;23.350;2023-02-12T04:26:09;119.93;;;111.63;;
2035;SDS011;23642;42.658;23.350;2023-02-12T04:28:56;121.50;;;112.50;;
2035;SDS011;23642;42.658;23.350;2023-02-12T04:31:32;121.75;;;112.85;;
2035;SDS011;23642;42.658;23.350;2023-02-12T04:34:12;121.03;;;112.28;;
2035;SDS011;23642;42.658;23.350;2023-02-12T04:36:49;117.70;;;109.40;;
2035;SDS011;23642;42.658;23.350;2023-02-12T04:39:20;121.95;;;113.20;;
2035;SDS011;23642;42.658;23.350;2023-02-12T04:41:51;122.18;;;113.20;;
2035;SDS011;23642;42.658;23.350;2023-02-12T04:44:26;119.13;;;110.82;;
2035;SDS011;23642;42.658;23.350;2023-02-12T04:46:58;118.47;;;110.32;;
2035;SDS011;23642;42.658;23.350;2023-02-12T04:49:30;120.85;;;112.00;;
2035;SDS011;23642;42.658;23.350;2023-02-12T04:52:09;122.13;;;113.30;;
2035;SDS011;23642;42.658;23.350;2023-02-12T04:54:43;120.07;;;111.38;;
2035;SDS011;23642;42.658;23.350;2023-02-12T04:57:15;116.40;;;107.43;;
2035;SDS011;23642;42.658;23.350;2023-02-12T04:59:52;120.60;;;112.20;;
2035;SDS011;23642;42.658;23.350;2023-02-12T05:02:21;117.80;;;109.25;;
2035;SDS011;23642;42.658;23.350;2023-02-12T05:04:48;119.35;;;110.55;;
2035;SDS011;23642;42.658;23.350;2023-02-12T05:07:24;116.38;;;108.13;;
2035;SDS011;23642;42.658;23.350;2023-02-12T05:09:54;114.50;;;106.53;;
2035;SDS011;23642;42.658;23.350;2023-02-12T05:12:21;115.47;;;107.35;;
2035;SDS011;23642;42.658;23.350;2023-02-12T05:14:58;114.32;;;106.30;;
2035;SDS011;23642;42.658;23.350;2023-02-12T05:17:25;115.22;;;107.22;;
2035;SDS011;23642;42.658;23.350;2023-02-12T05:19:56;116.15;;;107.88;;
2035;SDS011;23642;42.658;23.350;2023-02-12T05:22:27;116.65;;;108.32;;
2035;SDS011;23642;42.658;23.350;2023-02-12T05:24:59;118.72;;;110.30;;
2035;SDS011;23642;42.658;23.350;2023-02-12T05:27:26;114.38;;;105.65;;
2035;SDS011;23642;42.658;23.350;2023-02-12T05:29:53;115.72;;;107.05;;
2035;SDS011;23642;42.658;23.350;2023-02-12T05:32:21;114.30;;;105.60;;
2035;SDS011;23642;42.658;23.350;2023-02-12T05:34:51;114.57;;;106.47;;
2035;SDS011;23642;42.658;23.350;2023-02-12T05:37:23;111.85;;;103.90;;
2035;SDS011;23642;42.658;23.350;2023-02-12T05:40:07;113.57;;;105.45;;
2035;SDS011;23642;42.658;23.350;2023-02-12T05:42:46;111.55;;;103.65;;
2035;SDS011;23642;42.658;23.350;2023-02-12T05:45:23;112.65;;;104.75;;
2035;SDS011;23642;42.658;23.350;2023-02-12T05:47:56;115.10;;;107.20;;
2035;SDS011;23642;42.658;23.350;2023-02-12T05:50:40;112.45;;;104.60;;
2035;SDS011;23642;42.658;23.350;2023-02-12T05:53:15;115.88;;;107.55;;
2035;SDS011;23642;42.658;23.350;2023-02-12T05:59:01;117.38;;;108.93;;
2035;SDS011;23642;42.658;23.350;2023-02-12T06:01:49;115.30;;;107.30;;
2035;SDS011;23642;42.658;23.350;2023-02-12T06:04:49;116.68;;;108.32;;
2035;SDS011;23642;42.658;23.350;2023-02-12T06:07:38;115.15;;;106.72;;
2035;SDS011;23642;42.658;23.350;2023-02-12T06:10:16;115.05;;;106.93;;
2035;SDS011;23642;42.658;23.350;2023-02-12T06:13:03;115.15;;;106.88;;
2035;SDS011;23642;42.658;23.350;2023-02-12T06:15:36;113.60;;;105.60;;
2035;SDS011;23642;42.658;23.350;2023-02-12T06:18:28;116.68;;;108.60;;
2035;SDS011;23642;42.658;23.350;2023-02-12T06:21:09;116.82;;;108.18;;
2035;SDS011;23642;42.658;23.350;2023-02-12T06:23:49;112.20;;;104.43;;
2035;SDS011;23642;42.658;23.350;2023-02-12T06:26:42;110.68;;;102.88;;
2035;SDS011;23642;42.658;23.350;2023-02-12T06:29:32;114.13;;;106.05;;
2035;SDS011;23642;42.658;23.350;2023-02-12T06:32:02;113.78;;;105.75;;
2035;SDS011;23642;42.658;23.350;2023-02-12T06:34:33;115.32;;;107.28;;
2035;SDS011;23642;42.658;23.350;2023-02-12T06:37:30;112.80;;;105.00;;
2035;SDS011;23642;42.658;23.350;2023-02-12T06:40:23;113.47;;;105.43;;
2035;SDS011;23642;42.658;23.350;2023-02-12T06:43:03;110.75;;;103.03;;
2035;SDS011;23642;42.658;23.350;2023-02-12T06:48:38;112.50;;;104.20;;
2035;SDS011;23642;42.658;23.350;2023-02-12T06:54:37;115.65;;;106.90;;
2035;SDS011;23642;42.658;23.350;2023-02-12T07:07:23;110.28;;;102.70;;
2035;SDS011;23642;42.658;23.350;2023-02-12T07:10:01;110.07;;;102.38;;
2035;SDS011;23642;42.658;23.350;2023-02-12T07:13:00;114.55;;;106.72;;
2035;SDS011;23642;42.658;23.350;2023-02-12T07:15:43;110.80;;;102.90;;
2035;SDS011;23642;42.658;23.350;2023-02-12T07:18:18;112.70;;;104.68;;
2035;SDS011;23642;42.658;23.350;2023-02-12T07:21:09;110.70;;;103.00;;
2035;SDS011;23642;42.658;23.350;2023-02-12T07:23:57;114.55;;;106.45;;
2035;SDS011;23642;42.658;23.350;2023-02-12T07:26:38;112.00;;;104.10;;
2035;SDS011;23642;42.658;23.350;2023-02-12T07:29:07;110.45;;;102.55;;
2035;SDS011;23642;42.658;23.350;2023-02-12T07:31:51;112.28;;;104.35;;
2035;SDS011;23642;42.658;23.350;2023-02-12T07:34:30;113.50;;;104.85;;
2035;SDS011;23642;42.658;23.350;2023-02-12T07:37:37;110.68;;;102.78;;
2035;SDS011;23642;42.658;23.350;2023-02-12T07:40:11;110.60;;;102.90;;
2035;SDS011;23642;42.658;23.350;2023-02-12T07:42:42;113.63;;;104.88;;
2035;SDS011;23642;42.658;23.350;2023-02-12T07:45:19;112.35;;;104.22;;
2035;SDS011;23642;42.658;23.350;2023-02-12T07:48:27;112.70;;;104.88;;
2035;SDS011;23642;42.658;23.350;2023-02-12T07:51:16;111.93;;;104.00;;
2035;SDS011;23642;42.658;23.350;2023-02-12T07:56:49;116.15;;;107.35;;
2035;SDS011;23642;42.658;23.350;2023-02-12T07:59:28;111.65;;;103.20;;
2035;SDS011;23642;42.658;23.350;2023-02-12T08:05:07;113.50;;;105.13;;
2035;SDS011;23642;42.658;23.350;2023-02-12T08:08:01;109.88;;;101.97;;
2035;SDS011;23642;42.658;23.350;2023-02-12T08:11:14;111.53;;;103.35;;
2035;SDS011;23642;42.658;23.350;2023-02-12T08:16:50;113.63;;;105.47;;
2035;SDS011;23642;42.658;23.350;2023-02-12T08:19:31;114.25;;;105.65;;
2035;SDS011;23642;42.658;23.350;2023-02-12T08:22:24;117.00;;;108.68;;
2035;SDS011;23642;42.658;23.350;2023-02-12T08:25:24;114.78;;;106.18;;
2035;SDS011;23642;42.658;23.350;2023-02-12T08:27:55;114.18;;;105.78;;
2035;SDS011;23642;42.658;23.350;2023-02-12T08:30:50;110.35;;;102.45;;
2035;SDS011;23642;42.658;23.350;2023-02-12T08:33:56;115.55;;;106.95;;
2035;SDS011;23642;42.658;23.350;2023-02-12T08:36:38;112.75;;;104.57;;
2035;SDS011;23642;42.658;23.350;2023-02-12T08:42:27;117.47;;;108.75;;
2035;SDS011;23642;42.658;23.350;2023-02-12T08:45:16;114.28;;;105.82;;
2035;SDS011;23642;42.658;23.350;2023-02-12T08:48:16;116.70;;;108.05;;
2035;SDS011;23642;42.658;23.350;2023-02-12T08:50:54;115.15;;;106.90;;
2035;SDS011;23642;42.658;23.350;2023-02-12T08:56:45;114.93;;;106.65;;
2035;SDS011;23642;42.658;23.350;2023-02-12T08:59:26;119.00;;;110.30;;
2035;SDS011;23642;42.658;23.350;2023-02-12T09:01:59;112.80;;;104.53;;
2035;SDS011;23642;42.658;23.350;2023-02-12T09:04:46;114.97;;;106.40;;
2035;SDS011;23642;42.658;23.350;2023-02-12T09:07:34;115.45;;;106.90;;
2035;SDS011;23642;42.658;23.350;2023-02-12T09:10:15;116.43;;;107.85;;
2035;SDS011;23642;42.658;23.350;2023-02-12T09:12:48;113.75;;;105.07;;
2035;SDS011;23642;42.658;23.350;2023-02-12T09:18:38;113.75;;;105.30;;
2035;SDS011;23642;42.658;23.350;2023-02-12T09:21:20;117.80;;;108.95;;
2035;SDS011;23642;42.658;23.350;2023-02-12T09:23:54;112.90;;;104.70;;
2035;SDS011;23642;42.658;23.350;2023-02-12T09:26:35;111.35;;;103.18;;
2035;SDS011;23642;42.658;23.350;2023-02-12T09:29:27;114.65;;;106.25;;
2035;SDS011;23642;42.658;23.350;2023-02-12T09:32:04;116.15;;;106.70;;
2035;SDS011;23642;42.658;23.350;2023-02-12T09:34:43;115.97;;;106.50;;
2035;SDS011;23642;42.658;23.350;2023-02-12T09:37:44;116.00;;;107.40;;
2035;SDS011;23642;42.658;23.350;2023-02-12T09:40:38;115.13;;;106.60;;
2035;SDS011;23642;42.658;23.350;2023-02-12T09:43:22;114.20;;;105.75;;
2035;SDS011;23642;42.658;23.350;2023-02-12T11:04:57;121.13;;;111.70;;
2035;SDS011;23642;42.658;23.350;2023-02-12T11:08:02;122.07;;;112.63;;
2035;SDS011;23642;42.658;23.350;2023-02-12T11:11:15;122.90;;;113.30;;
2035;SDS011;23642;42.658;23.350;2023-02-12T11:14:22;120.80;;;111.43;;
2035;SDS011;23642;42.658;23.350;2023-02-12T11:20:36;119.97;;;110.30;;
2035;SDS011;23642;42.658;23.350;2023-02-12T11:23:33;123.47;;;114.03;;
2035;SDS011;23642;42.658;23.350;2023-02-12T11:26:46;122.33;;;112.80;;
2035;SDS011;23642;42.658;23.350;2023-02-12T11:33:44;125.50;;;115.90;;
2035;SDS011;23642;42.658;23.350;2023-02-12T11:42:45;126.03;;;116.07;;
2035;SDS011;23642;42.658;23.350;2023-02-12T11:45:29;119.90;;;110.77;;
2035;SDS011;23642;42.658;23.350;2023-02-12T11:48:42;121.60;;;111.97;;
2035;SDS011;23642;42.658;23.350;2023-02-12T11:51:49;120.97;;;112.00;;
2035;SDS011;23642;42.658;23.350;2023-02-12T11:54:20;120.97;;;111.63;;
2035;SDS011;23642;42.658;23.350;2023-02-12T12:00:11;119.50;;;110.40;;
2035;SDS011;23642;42.658;23.350;2023-02-12T12:02:48;123.43;;;114.10;;
2035;SDS011;23642;42.658;23.350;2023-02-12T12:05:27;123.60;;;113.80;;
2035;SDS011;23642;42.658;23.350;2023-02-12T12:08:18;121.00;;;111.07;;
2035;SDS011;23642;42.658;23.350;2023-02-12T12:10:56;123.57;;;113.67;;
2035;SDS011;23642;42.658;23.350;2023-02-12T12:14:33;123.37;;;113.97;;
2035;SDS011;23642;42.658;23.350;2023-02-12T12:16:49;120.47;;;111.33;;
2035;SDS011;23642;42.658;23.350;2023-02-12T12:19:39;124.03;;;114.30;;
2035;SDS011;23642;42.658;23.350;2023-02-12T12:22:25;126.17;;;116.47;;
2035;SDS011;23642;42.658;23.350;2023-02-12T12:25:19;125.57;;;116.27;;
2035;SDS011;23642;42.658;23.350;2023-02-12T12:28:29;127.10;;;117.00;;
2035;SDS011;23642;42.658;23.350;2023-02-12T12:31:34;124.23;;;114.70;;
2035;SDS011;23642;42.658;23.350;2023-02-12T12:44:35;121.53;;;112.13;;
2035;SDS011;23642;42.658;23.350;2023-02-12T12:47:23;120.60;;;111.30;;
2035;SDS011;23642;42.658;23.350;2023-02-12T12:50:29;119.87;;;110.93;;
2035;SDS011;23642;42.658;23.350;2023-02-12T12:53:10;118.60;;;109.63;;
2035;SDS011;23642;42.658;23.350;2023-02-12T12:56:09;121.40;;;112.20;;
2035;SDS011;23642;42.658;23.350;2023-02-12T13:18:29;123.90;;;114.30;;
2035;SDS011;23642;42.658;23.350;2023-02-12T13:21:33;126.90;;;116.80;;
2035;SDS011;23642;42.658;23.350;2023-02-12T13:24:26;126.47;;;116.43;;
2035;SDS011;23642;42.658;23.350;2023-02-12T13:27:57;123.60;;;113.90;;
2035;SDS011;23642;42.658;23.350;2023-02-12T13:30:32;124.93;;;115.17;;
2035;SDS011;23642;42.658;23.350;2023-02-12T13:41:07;125.70;;;115.87;;
2035;SDS011;23642;42.658;23.350;2023-02-12T13:44:18;126.17;;;116.07;;
2035;SDS011;23642;42.658;23.350;2023-02-12T13:47:25;127.47;;;116.87;;
2035;SDS011;23642;42.658;23.350;2023-02-12T13:50:46;122.60;;;112.80;;
2035;SDS011;23642;42.658;23.350;2023-02-12T13:54:33;127.37;;;117.30;;
2035;SDS011;23642;42.658;23.350;2023-02-12T13:57:43;123.57;;;113.83;;
2035;SDS011;23642;42.658;23.350;2023-02-12T14:07:46;126.20;;;116.07;;
2035;SDS011;23642;42.658;23.350;2023-02-12T14:10:22;126.40;;;116.40;;
2035;SDS011;23642;42.658;23.350;2023-02-12T14:13:25;127.50;;;117.37;;
2035;SDS011;23642;42.658;23.350;2023-02-12T14:16:36;128.27;;;118.17;;
2035;SDS011;23642;42.658;23.350;2023-02-12T14:19:39;125.03;;;115.17;;
2035;SDS011;23642;42.658;23.350;2023-02-12T14:26:13;126.87;;;116.60;;
2035;SDS011;23642;42.658;23.350;2023-02-12T14:29:05;124.83;;;115.23;;
2035;SDS011;23642;42.658;23.350;2023-02-12T14:35:30;124.80;;;114.83;;
2035;SDS011;23642;42.658;23.350;2023-02-12T14:41:55;122.70;;;112.70;;
2035;SDS011;23642;42.658;23.350;2023-02-12T14:44:58;125.40;;;114.93;;
2035;SDS011;23642;42.658;23.350;2023-02-12T14:50:42;122.87;;;113.03;;
2035;SDS011;23642;42.658;23.350;2023-02-12T14:53:43;127.37;;;117.57;;
2035;SDS011;23642;42.658;23.350;2023-02-12T14:56:22;127.87;;;117.90;;
2035;SDS011;23642;42.658;23.350;2023-02-12T14:59:25;125.40;;;114.97;;
2035;SDS011;23642;42.658;23.350;2023-02-12T15:01:51;125.97;;;116.13;;
2035;SDS011;23642;42.658;23.350;2023-02-12T15:04:31;126.60;;;116.17;;
2035;SDS011;23642;42.658;23.350;2023-02-12T15:07:08;124.30;;;114.40;;
2035;SDS011;23642;42.658;23.350;2023-02-12T15:09:55;122.33;;;112.63;;
2035;SDS011;23642;42.658;23.350;2023-02-12T15:12:34;124.93;;;114.97;;
2035;SDS011;23642;42.658;23.350;2023-02-12T15:15:38;126.73;;;116.80;;
2035;SDS011;23642;42.658;23.350;2023-02-12T15:18:41;128.33;;;117.93;;
2035;SDS011;23642;42.658;23.350;2023-02-12T15:21:44;126.70;;;116.73;;
2035;SDS011;23642;42.658;23.350;2023-02-12T15:24:29;123.63;;;113.80;;
2035;SDS011;23642;42.658;23.350;2023-02-12T15:27:06;127.97;;;117.77;;
2035;SDS011;23642;42.658;23.350;2023-02-12T15:29:41;125.67;;;115.57;;
2035;SDS011;23642;42.658;23.350;2023-02-12T15:38:41;130.47;;;119.60;;
2035;SDS011;23642;42.658;23.350;2023-02-12T15:45:27;128.93;;;118.70;;
2035;SDS011;23642;42.658;23.350;2023-02-12T15:48:17;128.43;;;118.03;;
2035;SDS011;23642;42.658;23.350;2023-02-12T15:50:54;130.23;;;119.40;;
2035;SDS011;23642;42.658;23.350;2023-02-12T15:53:37;128.77;;;118.03;;
2035;SDS011;23642;42.658;23.350;2023-02-12T15:56:20;132.40;;;120.90;;
2035;SDS011;23642;42.658;23.350;2023-02-12T15:58:58;127.17;;;116.37;;
2035;SDS011;23642;42.658;23.350;2023-02-12T16:01:27;128.37;;;117.63;;
2035;SDS011;23642;42.658;23.350;2023-02-12T16:04:06;126.47;;;116.07;;
2035;SDS011;23642;42.658;23.350;2023-02-12T16:06:58;131.03;;;120.17;;
2035;SDS011;23642;42.658;23.350;2023-02-12T16:09:51;128.90;;;118.40;;
2035;SDS011;23642;42.658;23.350;2023-02-12T16:12:38;128.60;;;118.00;;
2035;SDS011;23642;42.658;23.350;2023-02-12T16:15:24;126.83;;;116.43;;
2035;SDS011;23642;42.658;23.350;2023-02-12T16:17:55;132.38;;;121.30;;
2035;SDS011;23642;42.658;23.350;2023-02-12T16:20:28;130.87;;;119.70;;
2035;SDS011;23642;42.658;23.350;2023-02-12T16:23:07;130.93;;;119.83;;
2035;SDS011;23642;42.658;23.350;2023-02-12T16:25:51;131.93;;;120.67;;
2035;SDS011;23642;42.658;23.350;2023-02-12T16:28:26;129.70;;;118.93;;
2035;SDS011;23642;42.658;23.350;2023-02-12T16:31:08;133.07;;;122.03;;
2035;SDS011;23642;42.658;23.350;2023-02-12T16:34:02;130.88;;;119.72;;
2035;SDS011;23642;42.658;23.350;2023-02-12T16:47:11;131.00;;;119.80;;
2035;SDS011;23642;42.658;23.350;2023-02-12T16:50:35;128.60;;;117.90;;
2035;SDS011;23642;42.658;23.350;2023-02-12T16:53:50;132.87;;;121.43;;
2035;SDS011;23642;42.658;23.350;2023-02-12T16:56:51;133.15;;;121.85;;
2035;SDS011;23642;42.658;23.350;2023-02-12T16:59:34;134.67;;;123.17;;
2035;SDS011;23642;42.658;23.350;2023-02-12T17:12:03;139.77;;;127.30;;
2035;SDS011;23642;42.658;23.350;2023-02-12T17:14:47;136.65;;;124.72;;
2035;SDS011;23642;42.658;23.350;2023-02-12T17:17:41;140.25;;;127.72;;
2035;SDS011;23642;42.658;23.350;2023-02-12T17:20:31;140.05;;;127.28;;
2035;SDS011;23642;42.658;23.350;2023-02-12T17:23:12;139.98;;;127.30;;
2035;SDS011;23642;42.658;23.350;2023-02-12T17:32:23;139.05;;;126.75;;
2035;SDS011;23642;42.658;23.350;2023-02-12T17:35:26;139.97;;;127.50;;
2035;SDS011;23642;42.658;23.350;2023-02-12T17:38:26;140.43;;;127.80;;
2035;SDS011;23642;42.658;23.350;2023-02-12T17:41:25;146.20;;;132.55;;
2035;SDS011;23642;42.658;23.350;2023-02-12T17:47:10;143.57;;;131.00;;
2035;SDS011;23642;42.658;23.350;2023-02-12T17:50:04;147.70;;;133.68;;
2035;SDS011;23642;42.658;23.350;2023-02-12T17:53:02;144.02;;;130.77;;
2035;SDS011;23642;42.658;23.350;2023-02-12T17:56:08;142.68;;;129.73;;
2035;SDS011;23642;42.658;23.350;2023-02-12T17:59:13;144.68;;;131.27;;
2035;SDS011;23642;42.658;23.350;2023-02-12T18:02:12;145.38;;;131.95;;
2035;SDS011;23642;42.658;23.350;2023-02-12T18:05:14;143.98;;;130.82;;
2035;SDS011;23642;42.658;23.350;2023-02-12T18:08:38;143.73;;;130.68;;
2035;SDS011;23642;42.658;23.350;2023-02-12T18:11:52;145.85;;;132.30;;
2035;SDS011;23642;42.658;23.350;2023-02-12T18:14:33;144.98;;;131.90;;
2035;SDS011;23642;42.658;23.350;2023-02-12T18:23:35;148.43;;;134.23;;
2035;SDS011;23642;42.658;23.350;2023-02-12T18:26:34;143.80;;;130.23;;
2035;SDS011;23642;42.658;23.350;2023-02-12T18:32:19;142.85;;;130.23;;
2035;SDS011;23642;42.658;23.350;2023-02-12T18:35:15;141.68;;;128.70;;
2035;SDS011;23642;42.658;23.350;2023-02-12T18:41:34;141.37;;;128.53;;
2035;SDS011;23642;42.658;23.350;2023-02-12T18:44:16;140.88;;;127.82;;
2035;SDS011;23642;42.658;23.350;2023-02-12T18:47:16;137.10;;;125.30;;
2035;SDS011;23642;42.658;23.350;2023-02-12T18:50:02;135.17;;;123.37;;
2035;SDS011;23642;42.658;23.350;2023-02-12T18:52:43;141.77;;;128.73;;
2035;SDS011;23642;42.658;23.350;2023-02-12T18:58:52;143.07;;;130.17;;
2035;SDS011;23642;42.658;23.350;2023-02-12T19:01:47;145.53;;;132.40;;
2035;SDS011;23642;42.658;23.350;2023-02-12T19:07:41;148.17;;;134.47;;
2035;SDS011;23642;42.658;23.350;2023-02-12T19:10:36;144.10;;;131.00;;
2035;SDS011;23642;42.658;23.350;2023-02-12T19:16:33;144.65;;;130.57;;
2035;SDS011;23642;42.658;23.350;2023-02-12T19:19:41;145.37;;;132.20;;
2035;SDS011;23642;42.658;23.350;2023-02-12T19:22:55;142.93;;;129.48;;
2035;SDS011;23642;42.658;23.350;2023-02-12T19:25:50;145.77;;;132.57;;
2035;SDS011;23642;42.658;23.350;2023-02-12T19:29:11;148.67;;;135.20;;
2035;SDS011;23642;42.658;23.350;2023-02-12T19:32:33;144.97;;;131.57;;
2035;SDS011;23642;42.658;23.350;2023-02-12T19:35:42;149.23;;;135.23;;
2035;SDS011;23642;42.658;23.350;2023-02-12T19:39:12;152.25;;;138.00;;
2035;SDS011;23642;42.658;23.350;2023-02-12T19:42:05;147.80;;;133.60;;
2035;SDS011;23642;42.658;23.350;2023-02-12T19:44:55;147.98;;;133.93;;
2035;SDS011;23642;42.658;23.350;2023-02-12T19:51:11;144.48;;;130.75;;
2035;SDS011;23642;42.658;23.350;2023-02-12T19:53:45;144.55;;;131.32;;
2035;SDS011;23642;42.658;23.350;2023-02-12T19:56:41;143.88;;;130.13;;
2035;SDS011;23642;42.658;23.350;2023-02-12T20:37:47;137.98;;;124.55;;
2035;SDS011;23642;42.658;23.350;2023-02-12T20:43:35;139.63;;;125.60;;
2035;SDS011;23642;42.658;23.350;2023-02-12T20:46:34;138.68;;;125.25;;
2035;SDS011;23642;42.658;23.350;2023-02-12T20:55:48;134.02;;;121.28;;
2035;SDS011;23642;42.658;23.350;2023-02-12T20:59:36;133.55;;;121.18;;
2035;SDS011;23642;42.658;23.350;2023-02-12T21:02:49;129.40;;;117.15;;
2035;SDS011;23642;42.658;23.350;2023-02-12T21:07:22;136.50;;;123.45;;
2035;SDS011;23642;42.658;23.350;2023-02-12T21:13:05;134.55;;;122.40;;
2035;SDS011;23642;42.658;23.350;2023-02-12T21:16:17;135.07;;;122.18;;
2035;SDS011;23642;42.658;23.350;2023-02-12T21:19:08;133.43;;;120.47;;
2035;SDS011;23642;42.658;23.350;2023-02-12T21:22:56;138.40;;;124.72;;
2035;SDS011;23642;42.658;23.350;2023-02-12T21:35:52;131.30;;;118.63;;
2035;SDS011;23642;42.658;23.350;2023-02-12T21:38:59;131.43;;;119.05;;
2035;SDS011;23642;42.658;23.350;2023-02-12T21:55:26;129.82;;;118.00;;
2035;SDS011;23642;42.658;23.350;2023-02-12T21:58:32;130.70;;;117.68;;
2035;SDS011;23642;42.658;23.350;2023-02-12T22:05:06;130.18;;;117.88;;
2035;SDS011;23642;42.658;23.350;2023-02-12T22:08:37;125.07;;;112.75;;
2035;SDS011;23642;42.658;23.350;2023-02-12T22:11:56;132.15;;;118.65;;
2035;SDS011;23642;42.658;23.350;2023-02-12T22:15:17;127.90;;;115.30;;
2035;SDS011;23642;42.658;23.350;2023-02-12T22:18:09;124.28;;;112.38;;
2035;SDS011;23642;42.658;23.350;2023-02-12T22:24:31;125.43;;;112.45;;
2035;SDS011;23642;42.658;23.350;2023-02-12T22:47:36;118.55;;;106.93;;
2035;SDS011;23642;42.658;23.350;2023-02-12T22:50:33;122.22;;;110.53;;
2035;SDS011;23642;42.658;23.350;2023-02-12T22:53:28;121.13;;;108.93;;
2035;SDS011;23642;42.658;23.350;2023-02-12T22:56:53;121.30;;;109.20;;
2035;SDS011;23642;42.658;23.350;2023-02-12T23:00:05;122.13;;;109.28;;
2035;SDS011;23642;42.658;23.350;2023-02-12T23:32:33;117.13;;;104.88;;